sensor_id;sensor_type;location;lat;lon;timestamp;temperature;humidity
50690;DHT22;54375;48.298;11.238;2023-02-11T00:13:03;-5.00;93.70
50690;DHT22;54375;48.298;11.238;2023-02-11T00:33:05;-5.30;93.40
50690;DHT22;54375;48.298;11.238;2023-02-11T00:53:07;-5.50;93.60
50690;DHT22;54375;48.298;11.238;2023-02-11T01:13:10;-5.60;94.40
50690;DHT22;54375;48.298;11.238;2023-02-11T01:33:12;-5.80;93.60
50690;DHT22;54375;48.298;11.238;2023-02-11T01:53:15;-6.00;93.60
50690;DHT22;54375;48.298;11.238;2023-02-11T02:13:19;-6.10;93.70
50690;DHT22;54375;48.298;11.238;2023-02-11T02:33:30;-6.30;93.50
50690;DHT22;54375;48.298;11.238;2023-02-11T02:53:43;-6.40;94.20
50690;DHT22;54375;48.298;11.238;2023-02-11T03:13:50;-6.30;94.90
50690;DHT22;54375;48.298;11.238;2023-02-11T03:33:58;-6.20;94.50
50690;DHT22;54375;48.298;11.238;2023-02-11T03:54:06;-6.10;94.40
50690;DHT22;54375;48.298;11.238;2023-02-11T04:14:10;-6.30;94.10
50690;DHT22;54375;48.298;11.238;2023-02-11T04:34:12;-6.00;94.10
50690;DHT22;54375;48.298;11.238;2023-02-11T04:54:15;-5.70;94.50
50690;DHT22;54375;48.298;11.238;2023-02-11T05:14:18;-5.80;94.10
50690;DHT22;54375;48.298;11.238;2023-02-11T05:34:20;-5.40;95.20
50690;DHT22;54375;48.298;11.238;2023-02-11T05:54:23;-4.60;94.50
50690;DHT22;54375;48.298;11.238;2023-02-11T06:14:25;-3.70;93.50
50690;DHT22;54375;48.298;11.238;2023-02-11T06:34:27;-3.10;92.00
50690;DHT22;54375;48.298;11.238;2023-02-11T06:54:30;-2.80;91.90
50690;DHT22;54375;48.298;11.238;2023-02-11T07:14:32;-2.50;91.20
50690;DHT22;54375;48.298;11.238;2023-02-11T07:34:34;-2.30;91.20
50690;DHT22;54375;48.298;11.238;2023-02-11T07:54:36;-2.00;90.60
50690;DHT22;54375;48.298;11.238;2023-02-11T08:14:38;-1.20;87.70
50690;DHT22;54375;48.298;11.238;2023-02-11T08:34:41;-0.50;85.20
50690;DHT22;54375;48.298;11.238;2023-02-11T08:54:43;0.20;81.70
50690;DHT22;54375;48.298;11.238;2023-02-11T09:14:45;0.90;77.60
50690;DHT22;54375;48.298;11.238;2023-02-11T09:34:47;1.20;77.80
50690;DHT22;54375;48.298;11.238;2023-02-11T09:54:53;2.10;74.60
50690;DHT22;54375;48.298;11.238;2023-02-11T10:15:15;2.50;71.40
50690;DHT22;54375;48.298;11.238;2023-02-11T10:35:20;3.40;69.60
50690;DHT22;54375;48.298;11.238;2023-02-11T10:55:25;4.00;68.50
50690;DHT22;54375;48.298;11.238;2023-02-11T11:15:29;4.50;65.40
50690;DHT22;54375;48.298;11.238;2023-02-11T11:35:31;4.90;65.90
50690;DHT22;54375;48.298;11.238;2023-02-11T11:55:37;5.50;62.20
50690;DHT22;54375;48.298;11.238;2023-02-11T12:15:50;6.40;58.00
50690;DHT22;54375;48.298;11.238;2023-02-11T12:35:58;6.30;59.80
50690;DHT22;54375;48.298;11.238;2023-02-11T12:56:04;6.60;58.20
50690;DHT22;54375;48.298;11.238;2023-02-11T13:16:18;7.80;55.00
50690;DHT22;54375;48.298;11.238;2023-02-11T13:36:23;8.70;53.00
50690;DHT22;54375;48.298;11.238;2023-02-11T13:56:30;8.70;53.70
50690;DHT22;54375;48.298;11.238;2023-02-11T14:16:32;7.80;57.10
50690;DHT22;54375;48.298;11.238;2023-02-11T14:36:53;7.20;59.30
50690;DHT22;54375;48.298;11.238;2023-02-11T14:57:06;6.80;61.60
50690;DHT22;54375;48.298;11.238;2023-02-11T15:17:13;6.90;61.80
50690;DHT22;54375;48.298;11.238;2023-02-11T15:37:19;6.70;64.20
50690;DHT22;54375;48.298;11.238;2023-02-11T15:57:22;6.60;65.00
50690;DHT22;54375;48.298;11.238;2023-02-11T16:17:26;6.30;66.00
50690;DHT22;54375;48.298;11.238;2023-02-11T16:37:28;5.80;67.60
50690;DHT22;54375;48.298;11.238;2023-02-11T16:57:31;5.00;70.80
50690;DHT22;54375;48.298;11.238;2023-02-11T17:17:33;4.50;71.90
50690;DHT22;54375;48.298;11.238;2023-02-11T17:37:36;3.90;73.50
50690;DHT22;54375;48.298;11.238;2023-02-11T17:57:38;3.30;75.40
50690;DHT22;54375;48.298;11.238;2023-02-11T18:17:41;2.80;77.20
50690;DHT22;54375;48.298;11.238;2023-02-11T18:37:43;2.40;79.40
50690;DHT22;54375;48.298;11.238;2023-02-11T18:57:45;2.20;80.60
50690;DHT22;54375;48.298;11.238;2023-02-11T19:17:47;2.10;82.10
50690;DHT22;54375;48.298;11.238;2023-02-11T19:37:50;2.10;84.40
50690;DHT22;54375;48.298;11.238;2023-02-11T19:57:52;2.00;84.40
50690;DHT22;54375;48.298;11.238;2023-02-11T20:17:55;2.10;84.20
50690;DHT22;54375;48.298;11.238;2023-02-11T20:37:57;2.20;85.90
50690;DHT22;54375;48.298;11.238;2023-02-11T20:57:59;2.20;86.30
50690;DHT22;54375;48.298;11.238;2023-02-11T21:18:02;2.30;85.70
50690;DHT22;54375;48.298;11.238;2023-02-11T21:38:04;2.30;85.10
50690;DHT22;54375;48.298;11.238;2023-02-11T21:58:07;2.30;84.60
50690;DHT22;54375;48.298;11.238;2023-02-11T22:18:09;2.30;85.20
50690;DHT22;54375;48.298;11.238;2023-02-11T22:38:11;2.40;85.40
50690;DHT22;54375;48.298;11.238;2023-02-11T22:58:14;2.30;85.50
50690;DHT22;54375;48.298;11.238;2023-02-11T23:18:16;2.30;85.00
50690;DHT22;54375;48.298;11.238;2023-02-11T23:38:18;2.30;86.20
50690;DHT22;54375;48.298;11.238;2023-02-11T23:58:20;2.30;85.40
